ADDS METAR Data INFO
IDs: Format: Raw Decoded Include TAF

Data at: 0612 UTC 25 Jun 2018

PAVC 250556Z AUTO 09011KT 8SM -RA OVC005 08/07 A2990 RMK AO2 RAB14 CIG 004V009 SLP132 P0001 60002 T00780072 10083 20078 58018
PAVC 250521Z AUTO 10010KT 10SM -RA OVC005 08/07 A2992 RMK AO2 RAB14 CIG 005V010 P0000
PAVC 250456Z AUTO 10009KT 10SM OVC007 08/07 A2992 RMK AO2 RAB03E14 SLP139 P0000 T00780072
PAVC 250420Z AUTO 11012KT 10SM OVC007 08/07 A2993 RMK AO2 RAB03E14 CIG 004V010 P0000
PAVC 250356Z AUTO 10011KT 10SM BKN005 OVC010 08/07 A2994 RMK AO2 RAE02B18E34 CIG 003V007 SLP144 P0000 T00780072
PAVC 250325Z AUTO 09011KT 3SM -RA BR BKN005 OVC009 08/08 A2995 RMK AO2 RAE02B18 CIG 003V006 P0000
PAVC 250312Z AUTO 09011KT 9SM SCT005 OVC009 08/07 A2995 RMK AO2 RAE02 P0000
PAVC 250256Z AUTO 08011KT 6SM -RA BR BKN003 OVC009 08/08 A2996 RMK AO2 CIG 003V008 SLP150 P0000 60001 T00830078 58021
PAVC 250235Z AUTO 09010KT 8SM -RA OVC003 08/07 A2997 RMK AO2 P0000
PAVC 250221Z AUTO 09012KT 2 1/2SM -RA BR BKN003 OVC008 08/07 A2997 RMK AO2 VIS 1 1/2V4 P0000
PAVC 250207Z AUTO 09010KT 2 1/2SM -RA BR BKN005 BKN010 OVC014 08/07 A2998 RMK AO2 VIS 1 3/4V3 CIG 003V008 P0000
PAVC 250156Z AUTO 09010KT 1 3/4SM -RA BR SCT005 OVC010 08/07 A2998 RMK AO2 CIG 007V013 SLP159 P0001 T00780072
PAVC 250152Z AUTO 10010KT 2SM -RA BR SCT005 OVC010 08/07 A2998 RMK AO2 VIS 1V3 CIG 007V013 P0001
PAVC 250136Z AUTO 09011KT 10SM -RA BKN005 OVC011 08/07 A2999 RMK AO2 CIG 003V008 P0001
PAVC 250056Z AUTO 09012KT 10SM -RA OVC009 08/07 A3000 RMK AO2 RAB12 CIG 006V011 SLP165 P0000 T00780067
PAVC 250028Z AUTO 09009KT 10SM -RA OVC009 08/07 A3001 RMK AO2 RAB12 P0000
PAVC 250006Z AUTO 09009KT 6SM BR BKN011 OVC019 08/06 A3002 RMK AO2
PAVC 242356Z AUTO 09009KT 10SM SCT013 OVC019 08/06 A3002 RMK AO2 SLP171 60000 T00780061 10094 20072 58011
PAVC 242306Z AUTO 06010KT 10SM SCT007 BKN015 OVC022 08/07 A3003 RMK AO2
PAVC 242256Z AUTO 08012KT 10SM BKN007 BKN015 OVC022 08/07 A3003 RMK AO2 CIG 006V011 SLP176 T00830067
PAVC 242235Z AUTO 08010KT 10SM FEW004 BKN009 OVC022 08/07 A3004 RMK AO2 CIG 006V012
PAVC 242221Z AUTO 08008KT 5SM BR SCT004 OVC010 08/07 A3004 RMK AO2
PAVC 242204Z AUTO 08010KT 10SM BKN012 OVC016 08/07 A3004 RMK AO2
PAVC 242156Z AUTO 08013KT 10SM SCT009 OVC015 08/07 A3004 RMK AO2 SLP180 T00780067
PAVC 242056Z AUTO 09011KT 10SM BKN023 OVC033 09/06 A3005 RMK AO2 SLP182 60000 T00940061 58007
PAVC 241956Z AUTO 13009KT 10SM SCT008 BKN016 OVC038 09/06 A3006 RMK AO2 RAE28 SLP186 P0000 T00890061
PAVC 241953Z AUTO 10007KT 7SM SCT008 BKN016 OVC038 09/06 A3007 RMK AO2 RAE28 P0000
PAVC 241918Z AUTO VRB03KT 3SM -RA BR BKN008 OVC014 08/07 A3007 RMK AO2 P0000
PAVC 241909Z AUTO 00000KT 1 3/4SM -RA BR BKN008 OVC020 08/07 A3007 RMK AO2 P0000
PAVC 241856Z AUTO 21006KT 4SM -RA BR BKN008 OVC020 08/07 A3007 RMK AO2 RAB00E12B35 SLP190 P0000 T00780067
PAVC 241847Z AUTO 19003KT 2SM -RA BR FEW008 OVC020 08/07 A3007 RMK AO2 RAB00E12B35 P0000
PAVC 241839Z AUTO VRB03KT 1 3/4SM -RA BR OVC018 08/07 A3007 RMK AO2 VIS 1V5 RAB00E12B35 P0000
PAVC 241756Z AUTO 08009KT 5SM BR FEW008 OVC016 07/07 A3008 RMK AO2 SLP191 60001 T00720067 10078 20067 58007
PAVC 241730Z AUTO 08007KT 5SM BR FEW008 OVC018 07/07 A3008 RMK AO2
PAVC 241656Z AUTO 10008KT 10SM OVC020 07/06 A3009 RMK AO2 SLP194 T00720061
PAVC 241556Z AUTO 00000KT 9SM FEW004 BKN017 OVC024 07/07 A3009 RMK AO2 SLP196 T00720067
PAVC 241521Z AUTO 00000KT 10SM FEW005 OVC015 07/07 A3009 RMK AO2
PAVC 241456Z AUTO 00000KT 10SM SCT005 OVC013 07/07 A3010 RMK AO2 RAE1357B18E38 SLP199 P0001 60001 T00670067 57010
PAVC 241442Z AUTO 00000KT 9SM SCT004 OVC015 07/07 A3010 RMK AO2 RAE1357B18E38 P0001
PAVC 241423Z AUTO 00000KT 4SM -RA BR BKN004 OVC019 07/07 A3010 RMK AO2 RAE1357B18 P0001
PAVC 241411Z AUTO 00000KT 8SM SCT004 OVC021 07/07 A3011 RMK AO2 RAE1357
PAVC 241356Z AUTO 00000KT 10SM -RA BKN018 OVC025 07/07 A3011 RMK AO2 RAB01E11B35 SLP202 P0000 T00670067
PAVC 241339Z AUTO 00000KT 6SM -RA BR FEW006 BKN018 OVC025 07/07 A3012 RMK AO2 RAB01E11B35 P0000
PAVC 241256Z AUTO 00000KT 6SM BR OVC018 07/07 A3012 RMK AO2 SLP206 T00720067
PAVC 241156Z AUTO 00000KT 10SM OVC020 07/07 A3013 RMK AO2 SLP209 60001 70001 T00720067 10083 20072 58006
PAVC 241056Z AUTO 00000KT 10SM BKN017 OVC021 07/07 A3014 RMK AO2 SLP212 T00720067
PAVC 241019Z AUTO 00000KT 10SM SCT014 BKN021 OVC028 07/06 A3015 RMK AO2
PAVC 240956Z AUTO 21006KT 10SM OVC014 08/06 A3015 RMK AO2 SLP215 T00780061
PAVC 240939Z AUTO 20006KT 10SM OVC014 08/06 A3015 RMK AO2
PAVC 240856Z AUTO 00000KT 10SM OVC022 08/07 A3015 RMK AO2 SLP215 60001 T00780067 401000044 58000
PAVC 240756Z AUTO 21008KT 10SM BKN017 OVC024 08/06 A3015 RMK AO2 RAE48 SLP217 P0000 T00780061
PAVC 240733Z AUTO 24003KT 7SM -RA FEW006 BKN017 OVC027 08/07 A3016 RMK AO2 P0000
PAVC 240719Z AUTO 00000KT 10SM FEW009 BKN013 OVC027 08/07 A3015 RMK AO2 RAE14 P0000
PAVC 240656Z AUTO 00000KT 9SM -RA OVC011 08/07 A3015 RMK AO2 SLP216 P0001 T00780072
PAVC 240556Z AUTO 00000KT 4SM -RA BR OVC011 08/07 A3015 RMK AO2 RAB36 SLP216 P0000 60000 T00780072 10089 20078 56006
PAVC 240456Z AUTO 06003KT 10SM OVC013 08/08 A3015 RMK AO2 RAE20 SLP216 P0000 T00780078
PAVC 240356Z AUTO 07003KT 5SM -RA BR FEW004 OVC013 08/08 A3016 RMK AO2 RAB06E16B38 SLP219 P0000 T00780078
PAVC 240256Z AUTO 12005KT 6SM BR OVC013 08/07 A3017 RMK AO2 SLP221 T00830067 53001
PAVC 240209Z AUTO 11005KT 10SM OVC013 09/07 A3016 RMK AO2
PAVC 240156Z AUTO 12005KT 10SM OVC015 09/06 A3016 RMK AO2 SLP219 T00890061
PAVC 240056Z AUTO 09005KT 9SM BKN015 OVC023 08/06 A3016 RMK AO2 SLP219 T00830061
PAVC 232356Z AUTO 21005KT 10SM OVC015 08/06 A3016 RMK AO2 SLP220 60000 T00830056 10100 20067 51005
PAVC 232329Z AUTO 20010KT 10SM OVC029 09/06 A3016 RMK AO2
PAVC 232306Z AUTO 20011KT 10SM OVC031 09/06 A3016 RMK AO2
PAVC 232256Z AUTO 20009KT 10SM OVC029 09/06 A3016 RMK AO2 SLP219 T00890056
PAVC 232224Z AUTO 20010KT 10SM SCT024 BKN029 OVC035 09/05 A3016 RMK AO2
PAVC 232156Z AUTO 19011KT 10SM OVC037 09/05 A3015 RMK AO2 SLP217 T00940050